Latest Weather Observations for Brisbane Airport

IDQ60801

Issued at 3:32 pm EST Sunday 22 January 2017 (issued every 30 minutes, with the page automatically refreshed every 10 minutes)

About weather observations | Map of weather stations | Latest weather observations for QLD | Other Formats
Station Details ID: 040842 Name: BRISBANE AERO Lat: -27.39 Lon: 153.13 Height: 4.51 m
Data from the previous 72 hours. | See also: Recent months at Brisbane Airport
Date/Time
EST
Temp
°C
App
Temp
°C
Dew
Point
°C
Rel
Hum
%
Delta-T
°C
Wind Press
QNH
hPa
Press
MSL
hPa
Rain since
9am
mm
Dir  Spd
km/h
Gust
km/h
Spd
kts
Gust
kts
22/03:00pm 27.0 25.2 16.9 54 6.3 ESE 22 35 12 19 1014.7 1014.7 0.0
22/02:30pm 27.0 24.9 16.3 52 6.6 ESE 22 35 12 19 1014.9 1014.9 0.0
22/02:00pm 26.3 24.6 15.8 52 6.4 ESE 19 35 10 19 1015.0 1015.0 0.0
22/01:30pm 26.1 24.0 16.3 54 6.0 ESE 22 33 12 18 1015.2 1015.2 0.0
22/01:00pm 26.4 25.3 17.3 57 5.7 ESE 19 32 10 17 1015.4 1015.4 0.0
22/12:30pm 26.4 25.2 17.6 58 5.5 ESE 20 32 11 17 1015.7 1015.7 0.0
22/12:00pm 26.8 26.1 18.7 61 5.2 ESE 20 32 11 17 1015.9 1015.9 0.0
22/11:30am 27.3 25.7 17.4 54 6.2 ESE 22 35 12 19 1016.0 1016.0 0.0
22/11:00am 27.1 25.4 18.1 58 5.7 ESE 24 35 13 19 1016.0 1016.0 0.0
22/10:30am 27.2 26.4 17.9 56 5.9 SE 19 32 10 17 1016.3 1016.3 0.0
22/10:00am 27.0 25.5 17.8 57 5.8 SE 22 33 12 18 1016.3 1016.3 0.0
22/09:30am 25.8 25.3 17.8 61 5.0 SE 17 30 9 16 1016.3 1016.3 0.0
22/09:00am 25.5 24.8 18.2 64 4.6 SE 19 32 10 17 1016.2 1016.2 10.8
22/08:30am 25.5 24.9 18.9 67 4.2 SE 20 33 11 18 1016.1 1016.1 10.8
22/08:00am 25.1 24.9 18.6 67 4.1 SE 17 28 9 15 1015.9 1015.9 10.8
22/07:30am 24.5 24.8 18.8 70 3.6 SSE 15 24 8 13 1015.7 1015.7 10.8
22/07:00am 24.0 25.1 18.8 72 3.3 S 11 17 6 9 1015.6 1015.6 10.8
22/06:30am 23.8 24.9 18.9 74 3.1 S 11 15 6 8 1015.4 1015.4 10.8
22/06:00am 22.8 23.7 18.5 77 2.7 SSW 11 17 6 9 1015.1 1015.1 10.8
22/05:30am 22.4 23.5 18.9 80 2.2 SSW 11 13 6 7 1014.7 1014.7 10.8
22/05:00am 22.5 24.0 18.9 80 2.3 SSW 9 13 5 7 1014.1 1014.1 10.8
22/04:30am 22.4 23.8 19.6 84 1.8 SSW 11 17 6 9 1013.7 1013.7 10.8
22/04:00am 22.2 23.8 19.9 87 1.5 S 11 17 6 9 1013.3 1013.3 10.8
22/03:30am 22.1 23.2 20.4 90 1.1 SSE 15 26 8 14 1013.1 1013.1 10.8
22/03:00am 22.7 23.5 19.9 84 1.8 S 15 26 8 14 1013.1 1013.1 10.8
22/02:30am 22.8 24.0 19.8 83 1.9 S 13 20 7 11 1013.1 1013.1 10.8
22/02:00am 22.7 23.9 19.9 84 1.8 S 13 22 7 12 1012.9 1012.9 10.8
22/01:30am 22.6 24.0 20.3 87 1.5 SSE 13 24 7 13 1013.0 1013.0 10.8
22/01:00am 22.9 25.0 20.1 84 1.8 S 9 13 5 7 1013.1 1013.1 10.8
22/12:30am 22.9 24.2 20.1 84 1.8 S 13 19 7 10 1013.3 1013.3 10.8
22/12:00am 23.2 23.7 20.1 83 2.0 S 17 26 9 14 1013.4 1013.4 10.8
 
Date/Time
EST
Temp
°C
App
Temp
°C
Dew
Point
°C
Rel
Hum
%
Delta-T
°C
Wind Press
QNH
hPa
Press
MSL
hPa
Rain since
9am
mm
Dir  Spd
km/h
Gust
km/h
Spd
kts
Gust
kts
21/11:30pm 23.3 24.6 20.2 83 2.0 SSE 13 19 7 10 1013.5 1013.5 10.8
21/11:00pm 23.3 24.4 20.5 84 1.8 S 15 24 8 13 1013.8 1013.8 10.8
21/10:30pm 23.3 25.3 20.7 85 1.7 SSE 11 19 6 10 1013.9 1013.9 10.8
21/10:00pm 23.4 24.6 20.6 84 1.8 SSE 15 22 8 12 1013.8 1013.8 10.8
21/09:30pm 23.5 24.5 21.1 86 1.6 SSE 17 32 9 17 1013.6 1013.6 10.8
21/09:00pm 24.1 25.3 20.6 81 2.3 SSE 15 28 8 15 1013.2 1013.2 10.8
21/08:30pm 24.2 25.5 20.8 81 2.2 SSE 15 26 8 14 1012.7 1012.7 10.8
21/08:00pm 24.2 25.1 21.5 85 1.8 SE 19 30 10 16 1012.5 1012.5 10.8
21/07:30pm 24.3 25.8 21.3 83 2.0 SSE 15 28 8 15 1011.7 1011.7 10.6
21/07:00pm 24.2 25.6 21.9 87 1.5 SE 17 32 9 17 1011.3 1011.3 10.6
21/06:30pm 24.5 25.5 22.1 86 1.6 SE 20 33 11 18 1010.7 1010.7 10.6
21/06:23pm 24.2 25.5 22.3 89 1.3 SE 19 30 10 16 1010.5 1010.5 10.6
21/06:00pm 23.8 25.2 22.6 93 0.8 SSE 19 33 10 18 1010.2 1010.2 10.6
21/05:30pm 23.8 24.1 22.2 91 1.1 SE 24 41 13 22 1009.8 1009.8 9.4
21/05:00pm 24.8 25.3 22.6 87 1.5 SE 24 37 13 20 1008.9 1008.9 9.0
21/04:30pm 24.9 26.1 22.5 86 1.6 SE 20 37 11 20 1008.6 1008.6 9.0
21/04:00pm 24.7 26.1 22.8 89 1.3 SE 20 33 11 18 1008.3 1008.3 9.0
21/03:30pm 24.5 26.1 23.2 92 0.9 SE 20 39 11 21 1008.1 1008.1 9.0
21/03:00pm 24.3 25.8 23.0 92 0.9 SE 20 35 11 19 1008.0 1008.0 6.8
21/02:37pm 25.0 25.2 22.8 87 1.5 SE 26 44 14 24 1008.0 1008.0 1.0
21/02:30pm 25.4 25.2 22.7 85 1.8 ESE 28 48 15 26 1007.9 1007.9 0.0
21/02:00pm 26.9 26.3 22.6 77 2.9 ESE 30 48 16 26 1007.5 1007.5 0.0
21/01:30pm 28.6 27.6 22.7 70 4.0 ESE 32 50 17 27 1007.0 1007.0 0.0
21/01:03pm 27.8 27.5 23.3 76 3.1 ESE 30 48 16 26 1007.1 1007.1 0.0
21/01:00pm 28.0 27.6 23.0 74 3.4 ESE 30 44 16 24 1007.2 1007.2 0.0
21/12:33pm 28.8 29.3 24.0 75 3.3 ESE 28 46 15 25 1006.9 1006.9 0.0
21/12:30pm 28.9 29.5 23.5 72 3.7 ESE 26 44 14 24 1006.9 1006.9 0.0
21/12:00pm 30.2 31.2 24.2 70 4.2 ESE 26 41 14 22 1006.8 1006.8 0.0
21/11:30am 32.1 35.4 23.9 62 5.7 SSE 13 17 7 9 1007.0 1007.0 0.0
21/11:00am 32.5 35.3 22.3 55 7.0 S 11 17 6 9 1006.9 1006.9 0.0
21/10:30am 32.9 35.3 22.2 53 7.3 W 13 20 7 11 1006.8 1006.8 0.0
21/10:00am 32.4 34.1 22.3 55 6.9 W 17 20 9 11 1006.7 1006.7 0.0
21/09:30am 31.8 33.4 22.1 56 6.6 WSW 17 28 9 15 1006.6 1006.6 0.0
21/09:00am 31.6 33.7 22.5 58 6.2 W 15 26 8 14 1006.5 1006.5 0.0
21/08:30am 31.2 33.7 22.4 59 6.0 W 13 24 7 13 1006.3 1006.3 0.0
21/08:00am 30.9 32.6 22.4 60 5.8 WNW 17 20 9 11 1006.1 1006.1 0.0
21/07:30am 30.9 33.2 22.1 59 6.0 NW 13 19 7 10 1006.0 1006.0 0.0
21/07:00am 30.0 33.4 22.0 62 5.4 WNW 7 13 4 7 1005.8 1005.8 0.0
21/06:30am 29.5 32.7 22.3 65 4.9 WNW 9 13 5 7 1005.6 1005.6 0.0
21/06:00am 28.8 31.8 22.6 69 4.2 WSW 11 15 6 8 1005.4 1005.4 0.0
21/05:30am 29.1 30.5 21.8 64 4.9 SW 17 22 9 12 1005.0 1005.0 0.0
21/05:00am 28.0 33.8 24.0 79 2.8 CALM 0 0 0 0 1004.7 1004.7 0.0
21/04:30am 28.0 32.3 24.3 80 2.6 NW 9 9 5 5 1004.2 1004.2 0.0
21/04:00am 27.9 32.6 24.3 81 2.5 NW 7 11 4 6 1003.6 1003.6 0.0
21/03:30am 28.0 32.4 24.4 81 2.5 NW 9 11 5 6 1003.3 1003.3 0.0
21/03:00am 28.0 32.4 24.4 81 2.5 NW 9 15 5 8 1002.9 1002.9 0.0
21/02:30am 28.3 33.2 24.7 81 2.5 NNW 7 9 4 5 1002.8 1002.8 0.0
21/02:00am 28.4 32.8 25.1 82 2.3 NNW 11 15 6 8 1002.9 1002.9 0.0
21/01:30am 28.3 32.5 25.3 84 2.1 N 13 17 7 9 1002.8 1002.8 0.0
21/01:00am 28.2 32.5 24.9 82 2.3 NNW 11 28 6 15 1002.9 1002.9 0.0
21/12:30am 27.7 34.2 25.0 85 1.9 CALM 0 6 0 3 1003.1 1003.1 0.0
21/12:00am 27.7 32.9 25.1 86 1.8 NW 7 7 4 4 1003.5 1003.5 0.0
 
Date/Time
EST
Temp
°C
App
Temp
°C
Dew
Point
°C
Rel
Hum
%
Delta-T
°C
Wind Press
QNH
hPa
Press
MSL
hPa
Rain since
9am
mm
Dir  Spd
km/h
Gust
km/h
Spd
kts
Gust
kts
20/11:30pm 27.8 33.6 25.1 85 1.9 NNW 4 7 2 4 1003.7 1003.7 0.0
20/11:00pm 27.6 32.3 25.0 86 1.8 W 9 9 5 5 1004.0 1004.0 0.0
20/10:30pm 28.0 34.6 25.3 85 1.9 CALM 0 7 0 4 1004.4 1004.4 0.0
20/10:00pm 28.7 34.2 24.7 79 2.8 SSE 4 13 2 7 1004.5 1004.5 0.0
20/09:30pm 28.3 32.6 24.3 79 2.8 N 9 15 5 8 1004.6 1004.6 0.0
20/09:00pm 29.2 32.4 24.3 75 3.4 SSW 15 24 8 13 1004.5 1004.5 0.0
20/08:30pm 28.6 30.2 25.2 82 2.4 N 26 33 14 18 1003.3 1003.3 0.0
20/08:00pm 28.4 29.4 24.8 81 2.5 N 28 37 15 20 1002.7 1002.7 0.0
20/07:30pm 28.1 28.3 25.0 83 2.2 N 33 41 18 22 1002.7 1002.7 0.0
20/07:00pm 28.0 28.3 24.9 83 2.2 N 32 44 17 24 1003.0 1003.0 0.0
20/06:30pm 28.0 28.1 24.9 83 2.2 N 33 43 18 23 1003.0 1003.0 0.0
20/06:00pm 28.0 27.9 24.6 82 2.4 N 33 44 18 24 1003.0 1003.0 0.0
20/05:30pm 28.4 27.3 24.1 77 3.0 NNE 37 46 20 25 1002.9 1002.9 0.0
20/05:00pm 28.5 27.3 23.9 76 3.2 NNE 37 48 20 26 1002.5 1002.5 0.0
20/04:30pm 28.9 28.5 24.0 75 3.4 NNE 33 44 18 24 1002.7 1002.7 0.0
20/04:00pm 29.1 28.3 23.4 71 3.9 NNE 33 39 18 21 1002.8 1002.8 0.0
20/03:30pm 29.5 28.6 22.8 67 4.6 NNE 32 41 17 22 1003.2 1003.2 0.0
20/03:00pm 29.3 28.1 22.6 67 4.6 NNE 33 39 18 21 1003.4 1003.4 0.0
20/02:30pm 30.1 28.9 22.6 64 5.1 NNE 33 39 18 21 1004.0 1004.0 0.0
20/02:00pm 30.1 29.4 21.8 61 5.6 NNE 28 35 15 19 1004.6 1004.6 0.0
20/01:30pm 29.5 28.2 22.1 64 5.0 NNE 32 39 17 21 1004.8 1004.8 0.0
20/01:00pm 30.9 30.5 22.4 60 5.8 NNE 28 33 15 18 1005.7 1005.7 0.0
20/12:30pm 30.8 31.7 23.3 64 5.2 NE 24 30 13 16 1006.4 1006.4 0.0
20/12:00pm 29.7 31.2 23.0 67 4.6 NE 20 28 11 15 1007.0 1007.0 0.0
20/11:30am 29.4 30.9 22.7 67 4.6 NNE 19 24 10 13 1007.3 1007.3 0.0
20/11:00am 28.8 30.7 22.0 66 4.6 NNE 15 20 8 11 1007.7 1007.7 0.0
20/10:30am 29.2 31.6 22.3 66 4.7 NNE 13 17 7 9 1008.2 1008.2 0.0
20/10:00am 28.3 30.2 21.4 66 4.6 NNE 13 19 7 10 1008.5 1008.5 0.0
20/09:30am 28.5 31.9 21.6 66 4.6 E 6 15 3 8 1008.9 1008.9 0.0
20/09:00am 27.6 30.9 21.8 70 3.9 WSW 7 17 4 9 1009.3 1009.3 0.0
20/08:30am 26.9 30.2 21.5 72 3.6 NW 6 9 3 5 1009.2 1009.2 0.0
20/08:00am 26.4 28.8 21.6 75 3.2 WNW 11 15 6 8 1009.4 1009.4 0.0
20/07:30am 26.1 28.0 21.4 75 3.1 W 13 17 7 9 1009.8 1009.8 0.0
20/07:00am 25.6 27.9 21.4 77 2.8 W 11 13 6 7 1009.8 1009.8 0.0
20/06:30am 25.1 27.6 21.0 78 2.7 SW 9 11 5 6 1009.8 1009.8 0.0
20/06:00am 24.5 27.2 21.3 82 2.1 SSW 9 11 5 6 1009.5 1009.5 0.0
20/05:30am 24.2 26.9 21.3 84 1.9 SSW 9 11 5 6 1009.2 1009.2 0.0
20/05:00am 24.3 27.0 21.3 83 2.0 SSW 9 11 5 6 1008.8 1008.8 0.0
20/04:30am 24.4 27.3 21.1 82 2.2 SSW 7 9 4 5 1008.4 1008.4 0.0
20/04:00am 24.2 26.3 21.0 82 2.1 SSW 11 13 6 7 1008.4 1008.4 0.0
20/03:30am 24.4 26.8 20.9 81 2.3 SSW 9 11 5 6 1008.4 1008.4 0.0
20/03:00am 24.5 26.9 20.8 80 2.4 SSW 9 11 5 6 1008.4 1008.4 0.0
20/02:30am 24.6 27.4 20.8 79 2.5 S 7 9 4 5 1008.5 1008.5 0.0
20/02:00am 24.7 27.4 20.7 78 2.6 S 7 9 4 5 1008.9 1008.9 0.0
20/01:30am 24.9 27.6 20.6 77 2.8 SSE 7 11 4 6 1009.4 1009.4 0.0
20/01:00am 25.0 27.3 20.7 77 2.8 SSE 9 13 5 7 1009.3 1009.3 0.0
20/12:30am 25.0 27.3 20.7 77 2.8 SE 9 17 5 9 1009.4 1009.4 0.0
20/12:00am 25.2 27.4 20.5 75 3.1 SSE 9 13 5 7 1009.9 1009.9 0.0
 
Date/Time
EST
Temp
°C
App
Temp
°C
Dew
Point
°C
Rel
Hum
%
Delta-T
°C
Wind Press
QNH
hPa
Press
MSL
hPa
Rain since
9am
mm
Dir  Spd
km/h
Gust
km/h
Spd
kts
Gust
kts
19/11:30pm 25.3 27.2 20.6 75 3.1 SSE 11 19 6 10 1010.2 1010.2 0.0
19/11:00pm 25.5 27.0 20.5 74 3.3 SSE 13 20 7 11 1010.5 1010.5 0.0
19/10:30pm 25.7 26.7 20.2 71 3.6 SE 15 26 8 14 1010.6 1010.6 0.0
19/10:00pm 25.7 26.9 20.0 71 3.7 SE 13 24 7 13 1011.1 1011.1 0.0
19/09:30pm 25.7 26.7 20.2 71 3.6 SE 15 24 8 13 1011.3 1011.3 0.0
19/09:00pm 25.8 26.8 20.3 71 3.6 SSE 15 26 8 14 1011.5 1011.5 0.0
19/08:30pm 25.8 27.1 20.1 71 3.7 SE 13 24 7 13 1011.0 1011.0 0.0
19/08:00pm 25.8 26.2 19.8 69 3.9 SE 17 24 9 13 1010.8 1010.8 0.0
19/07:30pm 25.8 26.7 20.0 70 3.8 SE 15 28 8 15 1010.7 1010.7 0.0
19/07:00pm 25.8 25.8 20.1 71 3.7 SE 20 32 11 17 1010.1 1010.1 0.0
19/06:30pm 26.1 26.4 19.6 67 4.2 SE 17 33 9 18 1009.9 1009.9 0.0
19/06:00pm 26.6 26.1 20.0 67 4.3 ESE 22 37 12 20 1009.6 1009.6 0.0
19/05:30pm 27.2 27.3 20.3 66 4.5 ESE 20 35 11 19 1009.5 1009.5 0.0
19/05:00pm 27.5 26.8 20.2 64 4.8 ESE 24 41 13 22 1009.0 1009.0 0.0
19/04:30pm 27.8 26.9 19.8 61 5.2 ESE 24 39 13 21 1008.6 1008.6 0.0
19/04:25pm 27.8 26.4 20.4 64 4.9 ESE 28 46 15 25 1008.6 1008.6 0.0
19/04:00pm 28.1 27.6 20.7 64 4.9 ESE 24 39 13 21 1008.8 1008.8 0.0

Other Formats:

Comma delimited format used in spreadsheet applications
http://www.bom.gov.au/fwo/IDQ60801/IDQ60801.94578.axf

JavaScript Object Notation format (JSON) in row-major order
http://www.bom.gov.au/fwo/IDQ60801/IDQ60801.94578.json